Terminal Aerodrome Forecast
Issued by NWS

Home | Current Version | Previous Version | Text Only | Print | Product List | Glossary On
Versions: 1 2 3 4 5 6 7 8 9 10 11 12 13 14 15 16 17 18 19 20 21 22 23 24
709
FTUS46 KSGX 010520
TAFSAN
TAF
KSAN 010520Z 0106/0212 VRB04KT P6SM FEW007
     FM011100 VRB04KT 3SM BR BKN005
     FM011500 VRB04KT P6SM FEW010
     FM011900 29010KT P6SM SKC
     FM020100 VRB04KT P6SM SKC
     FM020700 VRB04KT P6SM BKN010=

USA.gov is the U.S. government's official web portal to all federal, state and local government web resources and services.